sensor_id;sensor_type;location;lat;lon;timestamp;P1;durP1;ratioP1;P2;durP2;ratioP2
28022;SDS011;67403;50.104;8.758;2023-02-01T00:02:20;5.53;;;3.25;;
28022;SDS011;67403;50.104;8.758;2023-02-01T00:04:47;5.00;;;2.75;;
28022;SDS011;67403;50.104;8.758;2023-02-01T00:07:14;4.72;;;3.13;;
28022;SDS011;67403;50.104;8.758;2023-02-01T00:09:40;4.22;;;2.70;;
28022;SDS011;67403;50.104;8.758;2023-02-01T00:12:09;4.75;;;3.15;;
28022;SDS011;67403;50.104;8.758;2023-02-01T00:14:36;7.75;;;3.05;;
28022;SDS011;67403;50.104;8.758;2023-02-01T00:17:04;4.57;;;3.55;;
28022;SDS011;67403;50.104;8.758;2023-02-01T00:19:32;4.75;;;2.72;;
28022;SDS011;67403;50.104;8.758;2023-02-01T00:21:59;4.45;;;3.03;;
28022;SDS011;67403;50.104;8.758;2023-02-01T00:24:26;4.18;;;2.97;;
28022;SDS011;67403;50.104;8.758;2023-02-01T00:26:53;7.32;;;3.53;;
28022;SDS011;67403;50.104;8.758;2023-02-01T00:29:22;4.00;;;2.55;;
28022;SDS011;67403;50.104;8.758;2023-02-01T00:31:49;5.95;;;3.65;;
28022;SDS011;67403;50.104;8.758;2023-02-01T00:34:17;4.80;;;3.10;;
28022;SDS011;67403;50.104;8.758;2023-02-01T00:36:44;5.97;;;3.03;;
28022;SDS011;67403;50.104;8.758;2023-02-01T00:39:11;5.85;;;3.13;;
28022;SDS011;67403;50.104;8.758;2023-02-01T00:41:38;5.20;;;3.28;;
28022;SDS011;67403;50.104;8.758;2023-02-01T00:44:06;4.53;;;2.95;;
28022;SDS011;67403;50.104;8.758;2023-02-01T00:46:35;4.05;;;3.03;;
28022;SDS011;67403;50.104;8.758;2023-02-01T00:49:02;6.22;;;2.63;;
28022;SDS011;67403;50.104;8.758;2023-02-01T00:51:29;5.63;;;3.13;;
28022;SDS011;67403;50.104;8.758;2023-02-01T00:53:56;6.57;;;3.03;;
28022;SDS011;67403;50.104;8.758;2023-02-01T00:56:23;5.05;;;2.72;;
28022;SDS011;67403;50.104;8.758;2023-02-01T00:58:50;4.28;;;2.58;;
28022;SDS011;67403;50.104;8.758;2023-02-01T01:01:17;7.60;;;3.55;;
28022;SDS011;67403;50.104;8.758;2023-02-01T01:03:47;5.18;;;2.80;;
28022;SDS011;67403;50.104;8.758;2023-02-01T01:06:16;4.65;;;3.03;;
28022;SDS011;67403;50.104;8.758;2023-02-01T01:08:45;7.68;;;2.78;;
28022;SDS011;67403;50.104;8.758;2023-02-01T01:11:14;4.57;;;3.05;;
28022;SDS011;67403;50.104;8.758;2023-02-01T01:13:43;7.45;;;4.05;;
28022;SDS011;67403;50.104;8.758;2023-02-01T01:16:12;6.17;;;2.90;;
28022;SDS011;67403;50.104;8.758;2023-02-01T01:18:40;5.10;;;2.85;;
28022;SDS011;67403;50.104;8.758;2023-02-01T01:21:09;3.72;;;2.45;;
28022;SDS011;67403;50.104;8.758;2023-02-01T01:23:38;5.22;;;2.92;;
28022;SDS011;67403;50.104;8.758;2023-02-01T01:26:06;5.60;;;3.40;;
28022;SDS011;67403;50.104;8.758;2023-02-01T01:28:34;3.92;;;2.80;;
28022;SDS011;67403;50.104;8.758;2023-02-01T01:31:01;6.47;;;3.42;;
28022;SDS011;67403;50.104;8.758;2023-02-01T01:33:28;4.22;;;3.00;;
28022;SDS011;67403;50.104;8.758;2023-02-01T01:35:55;5.22;;;3.40;;
28022;SDS011;67403;50.104;8.758;2023-02-01T01:38:23;6.95;;;4.22;;
28022;SDS011;67403;50.104;8.758;2023-02-01T01:40:50;5.50;;;3.65;;
28022;SDS011;67403;50.104;8.758;2023-02-01T01:43:18;5.38;;;3.38;;
28022;SDS011;67403;50.104;8.758;2023-02-01T01:45:48;10.73;;;3.95;;
28022;SDS011;67403;50.104;8.758;2023-02-01T01:48:16;3.25;;;2.70;;
28022;SDS011;67403;50.104;8.758;2023-02-01T01:50:47;9.35;;;4.10;;
28022;SDS011;67403;50.104;8.758;2023-02-01T01:53:18;8.73;;;4.15;;
28022;SDS011;67403;50.104;8.758;2023-02-01T01:55:50;5.47;;;3.65;;
28022;SDS011;67403;50.104;8.758;2023-02-01T01:58:21;5.28;;;3.45;;
28022;SDS011;67403;50.104;8.758;2023-02-01T02:00:52;3.35;;;2.65;;
28022;SDS011;67403;50.104;8.758;2023-02-01T02:03:20;6.72;;;4.10;;
28022;SDS011;67403;50.104;8.758;2023-02-01T02:05:50;5.13;;;3.97;;
28022;SDS011;67403;50.104;8.758;2023-02-01T02:08:18;4.88;;;3.63;;
28022;SDS011;67403;50.104;8.758;2023-02-01T02:10:46;10.18;;;3.72;;
28022;SDS011;67403;50.104;8.758;2023-02-01T02:16:02;6.05;;;3.78;;
28022;SDS011;67403;50.104;8.758;2023-02-01T02:18:38;7.10;;;4.25;;
28022;SDS011;67403;50.104;8.758;2023-02-01T02:21:16;9.73;;;4.03;;
28022;SDS011;67403;50.104;8.758;2023-02-01T02:29:55;6.07;;;4.00;;
28022;SDS011;67403;50.104;8.758;2023-02-01T02:32:54;7.55;;;3.88;;
28022;SDS011;67403;50.104;8.758;2023-02-01T02:35:46;10.07;;;5.05;;
28022;SDS011;67403;50.104;8.758;2023-02-01T02:38:19;5.50;;;3.72;;
28022;SDS011;67403;50.104;8.758;2023-02-01T02:40:51;6.22;;;3.88;;
28022;SDS011;67403;50.104;8.758;2023-02-01T02:43:28;6.47;;;4.40;;
28022;SDS011;67403;50.104;8.758;2023-02-01T02:46:20;6.45;;;3.88;;
28022;SDS011;67403;50.104;8.758;2023-02-01T02:49:11;7.38;;;4.15;;
28022;SDS011;67403;50.104;8.758;2023-02-01T02:51:43;6.60;;;4.47;;
28022;SDS011;67403;50.104;8.758;2023-02-01T02:54:31;7.57;;;3.55;;
28022;SDS011;67403;50.104;8.758;2023-02-01T02:57:15;6.63;;;4.22;;
28022;SDS011;67403;50.104;8.758;2023-02-01T03:00:03;8.80;;;3.47;;
28022;SDS011;67403;50.104;8.758;2023-02-01T03:02:52;9.02;;;3.60;;
28022;SDS011;67403;50.104;8.758;2023-02-01T03:05:41;8.60;;;3.83;;
28022;SDS011;67403;50.104;8.758;2023-02-01T03:08:11;7.82;;;4.63;;
28022;SDS011;67403;50.104;8.758;2023-02-01T03:10:41;7.20;;;4.03;;
28022;SDS011;67403;50.104;8.758;2023-02-01T03:13:16;7.97;;;4.00;;
28022;SDS011;67403;50.104;8.758;2023-02-01T03:15:53;8.00;;;4.25;;
28022;SDS011;67403;50.104;8.758;2023-02-01T03:18:26;7.22;;;4.10;;
28022;SDS011;67403;50.104;8.758;2023-02-01T03:20:59;7.20;;;3.63;;
28022;SDS011;67403;50.104;8.758;2023-02-01T03:23:30;5.72;;;3.67;;
28022;SDS011;67403;50.104;8.758;2023-02-01T03:25:59;6.13;;;3.38;;
28022;SDS011;67403;50.104;8.758;2023-02-01T03:28:29;7.22;;;4.00;;
28022;SDS011;67403;50.104;8.758;2023-02-01T03:30:59;9.20;;;4.30;;
28022;SDS011;67403;50.104;8.758;2023-02-01T03:33:27;5.93;;;3.92;;
28022;SDS011;67403;50.104;8.758;2023-02-01T03:35:59;6.35;;;3.97;;
28022;SDS011;67403;50.104;8.758;2023-02-01T03:38:37;6.82;;;3.88;;
28022;SDS011;67403;50.104;8.758;2023-02-01T03:41:10;9.23;;;3.28;;
28022;SDS011;67403;50.104;8.758;2023-02-01T03:43:44;5.78;;;3.72;;
28022;SDS011;67403;50.104;8.758;2023-02-01T03:46:20;8.07;;;3.05;;
28022;SDS011;67403;50.104;8.758;2023-02-01T03:48:52;5.60;;;3.10;;
28022;SDS011;67403;50.104;8.758;2023-02-01T03:51:22;4.88;;;3.17;;
28022;SDS011;67403;50.104;8.758;2023-02-01T03:53:50;4.63;;;2.88;;
28022;SDS011;67403;50.104;8.758;2023-02-01T03:56:19;6.47;;;3.05;;
28022;SDS011;67403;50.104;8.758;2023-02-01T03:58:48;4.85;;;2.97;;
28022;SDS011;67403;50.104;8.758;2023-02-01T04:01:24;6.22;;;2.88;;
28022;SDS011;67403;50.104;8.758;2023-02-01T04:03:52;3.13;;;2.13;;
28022;SDS011;67403;50.104;8.758;2023-02-01T04:06:19;3.38;;;2.70;;
28022;SDS011;67403;50.104;8.758;2023-02-01T04:08:47;4.30;;;2.80;;
28022;SDS011;67403;50.104;8.758;2023-02-01T04:11:14;5.63;;;3.15;;
28022;SDS011;67403;50.104;8.758;2023-02-01T04:14:01;4.43;;;2.95;;
28022;SDS011;67403;50.104;8.758;2023-02-01T04:16:49;3.60;;;2.58;;
28022;SDS011;67403;50.104;8.758;2023-02-01T04:19:36;7.22;;;3.70;;
28022;SDS011;67403;50.104;8.758;2023-02-01T04:22:22;7.00;;;3.53;;
28022;SDS011;67403;50.104;8.758;2023-02-01T04:24:51;6.88;;;3.80;;
28022;SDS011;67403;50.104;8.758;2023-02-01T04:27:18;8.63;;;3.53;;
28022;SDS011;67403;50.104;8.758;2023-02-01T04:29:45;6.65;;;3.40;;
28022;SDS011;67403;50.104;8.758;2023-02-01T04:32:12;8.05;;;3.88;;
28022;SDS011;67403;50.104;8.758;2023-02-01T04:34:38;7.55;;;3.92;;
28022;SDS011;67403;50.104;8.758;2023-02-01T04:37:05;5.30;;;3.65;;
28022;SDS011;67403;50.104;8.758;2023-02-01T04:39:32;6.78;;;3.95;;
28022;SDS011;67403;50.104;8.758;2023-02-01T04:42:00;8.55;;;3.63;;
28022;SDS011;67403;50.104;8.758;2023-02-01T04:44:28;6.50;;;3.75;;
28022;SDS011;67403;50.104;8.758;2023-02-01T04:46:54;10.80;;;4.72;;
28022;SDS011;67403;50.104;8.758;2023-02-01T04:49:21;5.13;;;3.05;;
28022;SDS011;67403;50.104;8.758;2023-02-01T04:51:50;9.07;;;4.10;;
28022;SDS011;67403;50.104;8.758;2023-02-01T04:54:17;8.10;;;3.65;;
28022;SDS011;67403;50.104;8.758;2023-02-01T04:56:44;11.07;;;4.82;;
28022;SDS011;67403;50.104;8.758;2023-02-01T04:59:12;5.65;;;3.40;;
28022;SDS011;67403;50.104;8.758;2023-02-01T05:01:39;7.45;;;4.30;;
28022;SDS011;67403;50.104;8.758;2023-02-01T05:04:06;9.73;;;3.58;;
28022;SDS011;67403;50.104;8.758;2023-02-01T05:06:33;7.00;;;3.28;;
28022;SDS011;67403;50.104;8.758;2023-02-01T05:09:00;6.07;;;3.45;;
28022;SDS011;67403;50.104;8.758;2023-02-01T05:11:27;10.20;;;4.15;;
28022;SDS011;67403;50.104;8.758;2023-02-01T05:14:12;8.23;;;3.97;;
28022;SDS011;67403;50.104;8.758;2023-02-01T05:16:39;7.75;;;4.10;;
28022;SDS011;67403;50.104;8.758;2023-02-01T05:19:06;14.50;;;3.88;;
28022;SDS011;67403;50.104;8.758;2023-02-01T05:21:33;10.80;;;4.00;;
28022;SDS011;67403;50.104;8.758;2023-02-01T05:24:00;8.60;;;3.70;;
28022;SDS011;67403;50.104;8.758;2023-02-01T05:26:38;6.10;;;3.28;;
28022;SDS011;67403;50.104;8.758;2023-02-01T05:29:06;6.05;;;3.10;;
28022;SDS011;67403;50.104;8.758;2023-02-01T05:31:36;8.80;;;2.80;;
28022;SDS011;67403;50.104;8.758;2023-02-01T05:34:03;5.03;;;3.25;;
28022;SDS011;67403;50.104;8.758;2023-02-01T05:36:30;6.97;;;3.03;;
28022;SDS011;67403;50.104;8.758;2023-02-01T05:38:57;8.93;;;3.15;;
28022;SDS011;67403;50.104;8.758;2023-02-01T05:41:24;4.35;;;2.83;;
28022;SDS011;67403;50.104;8.758;2023-02-01T05:43:51;9.32;;;2.90;;
28022;SDS011;67403;50.104;8.758;2023-02-01T05:46:18;7.15;;;3.13;;
28022;SDS011;67403;50.104;8.758;2023-02-01T05:48:46;5.03;;;2.78;;
28022;SDS011;67403;50.104;8.758;2023-02-01T05:51:14;8.50;;;2.75;;
28022;SDS011;67403;50.104;8.758;2023-02-01T05:53:41;4.45;;;2.92;;
28022;SDS011;67403;50.104;8.758;2023-02-01T05:56:08;7.85;;;3.13;;
28022;SDS011;67403;50.104;8.758;2023-02-01T05:58:35;5.03;;;2.80;;
28022;SDS011;67403;50.104;8.758;2023-02-01T06:01:02;8.85;;;2.70;;
28022;SDS011;67403;50.104;8.758;2023-02-01T06:03:29;4.90;;;2.80;;
28022;SDS011;67403;50.104;8.758;2023-02-01T06:05:57;2.92;;;2.58;;
28022;SDS011;67403;50.104;8.758;2023-02-01T06:08:25;4.78;;;2.13;;
28022;SDS011;67403;50.104;8.758;2023-02-01T06:10:57;4.03;;;2.45;;
28022;SDS011;67403;50.104;8.758;2023-02-01T06:13:24;3.35;;;2.00;;
28022;SDS011;67403;50.104;8.758;2023-02-01T06:15:51;3.47;;;2.35;;
28022;SDS011;67403;50.104;8.758;2023-02-01T06:18:18;2.45;;;2.00;;
28022;SDS011;67403;50.104;8.758;2023-02-01T06:20:51;8.23;;;2.40;;
28022;SDS011;67403;50.104;8.758;2023-02-01T06:23:20;6.47;;;2.25;;
28022;SDS011;67403;50.104;8.758;2023-02-01T06:25:49;4.43;;;3.10;;
28022;SDS011;67403;50.104;8.758;2023-02-01T06:28:17;4.85;;;2.35;;
28022;SDS011;67403;50.104;8.758;2023-02-01T06:30:44;5.60;;;1.88;;
28022;SDS011;67403;50.104;8.758;2023-02-01T06:33:12;5.55;;;2.58;;
28022;SDS011;67403;50.104;8.758;2023-02-01T06:35:40;5.22;;;2.03;;
28022;SDS011;67403;50.104;8.758;2023-02-01T06:38:09;8.25;;;2.47;;
28022;SDS011;67403;50.104;8.758;2023-02-01T06:40:38;4.72;;;2.85;;
28022;SDS011;67403;50.104;8.758;2023-02-01T06:43:06;8.85;;;2.25;;
28022;SDS011;67403;50.104;8.758;2023-02-01T06:45:33;6.47;;;2.55;;
28022;SDS011;67403;50.104;8.758;2023-02-01T06:48:00;3.97;;;2.45;;
28022;SDS011;67403;50.104;8.758;2023-02-01T06:50:27;5.60;;;2.55;;
28022;SDS011;67403;50.104;8.758;2023-02-01T06:52:54;3.47;;;2.28;;
28022;SDS011;67403;50.104;8.758;2023-02-01T06:55:21;2.97;;;1.77;;
28022;SDS011;67403;50.104;8.758;2023-02-01T06:57:53;11.50;;;2.70;;
28022;SDS011;67403;50.104;8.758;2023-02-01T07:00:21;7.38;;;2.42;;
28022;SDS011;67403;50.104;8.758;2023-02-01T07:02:49;9.88;;;2.78;;
28022;SDS011;67403;50.104;8.758;2023-02-01T07:05:16;5.47;;;2.50;;
28022;SDS011;67403;50.104;8.758;2023-02-01T07:07:43;10.68;;;2.90;;
28022;SDS011;67403;50.104;8.758;2023-02-01T07:10:10;4.00;;;1.73;;
28022;SDS011;67403;50.104;8.758;2023-02-01T07:12:38;10.75;;;2.35;;
28022;SDS011;67403;50.104;8.758;2023-02-01T07:15:07;8.27;;;2.63;;
28022;SDS011;67403;50.104;8.758;2023-02-01T07:17:34;8.48;;;2.00;;
28022;SDS011;67403;50.104;8.758;2023-02-01T07:20:01;5.43;;;2.08;;
28022;SDS011;67403;50.104;8.758;2023-02-01T07:22:28;2.45;;;1.63;;
28022;SDS011;67403;50.104;8.758;2023-02-01T07:24:55;11.32;;;1.92;;
28022;SDS011;67403;50.104;8.758;2023-02-01T07:27:22;6.28;;;1.80;;
28022;SDS011;67403;50.104;8.758;2023-02-01T07:29:50;9.02;;;2.17;;
28022;SDS011;67403;50.104;8.758;2023-02-01T07:32:19;2.72;;;1.70;;
28022;SDS011;67403;50.104;8.758;2023-02-01T07:34:46;8.25;;;2.63;;
28022;SDS011;67403;50.104;8.758;2023-02-01T07:37:12;6.60;;;2.13;;
28022;SDS011;67403;50.104;8.758;2023-02-01T07:39:39;4.25;;;1.80;;
28022;SDS011;67403;50.104;8.758;2023-02-01T07:42:06;5.70;;;1.90;;
28022;SDS011;67403;50.104;8.758;2023-02-01T07:44:33;2.17;;;1.60;;
28022;SDS011;67403;50.104;8.758;2023-02-01T07:47:00;6.60;;;2.17;;
28022;SDS011;67403;50.104;8.758;2023-02-01T07:49:28;5.85;;;2.83;;
28022;SDS011;67403;50.104;8.758;2023-02-01T07:51:55;4.55;;;2.25;;
28022;SDS011;67403;50.104;8.758;2023-02-01T07:54:22;8.00;;;2.13;;
28022;SDS011;67403;50.104;8.758;2023-02-01T07:56:49;8.90;;;2.53;;
28022;SDS011;67403;50.104;8.758;2023-02-01T07:59:16;12.43;;;2.30;;
28022;SDS011;67403;50.104;8.758;2023-02-01T08:01:43;4.65;;;1.73;;
28022;SDS011;67403;50.104;8.758;2023-02-01T08:04:11;6.65;;;1.95;;
28022;SDS011;67403;50.104;8.758;2023-02-01T08:06:40;11.85;;;2.20;;
28022;SDS011;67403;50.104;8.758;2023-02-01T08:09:07;6.25;;;2.15;;
28022;SDS011;67403;50.104;8.758;2023-02-01T08:11:36;6.95;;;2.20;;
28022;SDS011;67403;50.104;8.758;2023-02-01T08:14:03;9.77;;;2.47;;
28022;SDS011;67403;50.104;8.758;2023-02-01T08:16:31;6.20;;;2.15;;
28022;SDS011;67403;50.104;8.758;2023-02-01T08:19:00;4.45;;;1.83;;
28022;SDS011;67403;50.104;8.758;2023-02-01T08:21:27;2.50;;;1.70;;
28022;SDS011;67403;50.104;8.758;2023-02-01T08:24:03;5.90;;;2.85;;
28022;SDS011;67403;50.104;8.758;2023-02-01T08:28:59;9.88;;;2.10;;
28022;SDS011;67403;50.104;8.758;2023-02-01T08:31:29;5.85;;;3.08;;
28022;SDS011;67403;50.104;8.758;2023-02-01T08:33:57;4.22;;;1.77;;
28022;SDS011;67403;50.104;8.758;2023-02-01T08:36:26;9.20;;;2.33;;
28022;SDS011;67403;50.104;8.758;2023-02-01T08:38:54;5.18;;;1.75;;
28022;SDS011;67403;50.104;8.758;2023-02-01T08:41:24;7.95;;;2.40;;
28022;SDS011;67403;50.104;8.758;2023-02-01T08:43:52;8.73;;;2.05;;
28022;SDS011;67403;50.104;8.758;2023-02-01T08:46:20;6.30;;;2.03;;
28022;SDS011;67403;50.104;8.758;2023-02-01T08:48:48;3.65;;;2.03;;
28022;SDS011;67403;50.104;8.758;2023-02-01T08:51:16;3.42;;;2.08;;
28022;SDS011;67403;50.104;8.758;2023-02-01T08:53:44;14.65;;;2.25;;
28022;SDS011;67403;50.104;8.758;2023-02-01T08:56:12;12.40;;;2.05;;
28022;SDS011;67403;50.104;8.758;2023-02-01T08:58:41;6.50;;;2.28;;
28022;SDS011;67403;50.104;8.758;2023-02-01T09:01:11;4.28;;;1.98;;
28022;SDS011;67403;50.104;8.758;2023-02-01T09:03:39;4.18;;;1.95;;
28022;SDS011;67403;50.104;8.758;2023-02-01T09:06:07;3.95;;;1.88;;
28022;SDS011;67403;50.104;8.758;2023-02-01T09:08:36;5.07;;;1.92;;
28022;SDS011;67403;50.104;8.758;2023-02-01T09:11:05;10.05;;;2.35;;
28022;SDS011;67403;50.104;8.758;2023-02-01T09:13:33;7.25;;;2.33;;
28022;SDS011;67403;50.104;8.758;2023-02-01T09:16:02;5.07;;;1.73;;
28022;SDS011;67403;50.104;8.758;2023-02-01T09:18:29;9.55;;;2.25;;
28022;SDS011;67403;50.104;8.758;2023-02-01T09:20:56;7.60;;;1.85;;
28022;SDS011;67403;50.104;8.758;2023-02-01T09:23:23;3.47;;;1.60;;
28022;SDS011;67403;50.104;8.758;2023-02-01T09:25:50;5.88;;;1.88;;
28022;SDS011;67403;50.104;8.758;2023-02-01T09:28:18;7.53;;;1.85;;
28022;SDS011;67403;50.104;8.758;2023-02-01T09:30:45;5.50;;;2.10;;
28022;SDS011;67403;50.104;8.758;2023-02-01T09:33:13;9.55;;;2.67;;
28022;SDS011;67403;50.104;8.758;2023-02-01T09:35:42;5.00;;;2.13;;
28022;SDS011;67403;50.104;8.758;2023-02-01T09:38:09;3.80;;;1.52;;
28022;SDS011;67403;50.104;8.758;2023-02-01T09:40:39;6.50;;;2.83;;
28022;SDS011;67403;50.104;8.758;2023-02-01T09:43:11;12.77;;;2.40;;
28022;SDS011;67403;50.104;8.758;2023-02-01T09:45:50;8.65;;;2.33;;
28022;SDS011;67403;50.104;8.758;2023-02-01T09:48:24;13.80;;;2.25;;
28022;SDS011;67403;50.104;8.758;2023-02-01T09:50:58;11.02;;;2.28;;
28022;SDS011;67403;50.104;8.758;2023-02-01T09:53:29;7.30;;;2.25;;
28022;SDS011;67403;50.104;8.758;2023-02-01T09:55:59;6.82;;;1.67;;
28022;SDS011;67403;50.104;8.758;2023-02-01T09:58:32;6.53;;;2.05;;
28022;SDS011;67403;50.104;8.758;2023-02-01T10:01:02;10.95;;;2.22;;
28022;SDS011;67403;50.104;8.758;2023-02-01T10:03:33;8.85;;;2.22;;
28022;SDS011;67403;50.104;8.758;2023-02-01T10:06:05;11.60;;;2.33;;
28022;SDS011;67403;50.104;8.758;2023-02-01T10:08:55;6.18;;;1.90;;
28022;SDS011;67403;50.104;8.758;2023-02-01T10:11:36;4.10;;;1.67;;
28022;SDS011;67403;50.104;8.758;2023-02-01T10:14:20;4.82;;;1.92;;
28022;SDS011;67403;50.104;8.758;2023-02-01T10:17:20;6.32;;;1.40;;
28022;SDS011;67403;50.104;8.758;2023-02-01T10:19:59;5.85;;;1.70;;
28022;SDS011;67403;50.104;8.758;2023-02-01T10:22:37;5.25;;;2.40;;
28022;SDS011;67403;50.104;8.758;2023-02-01T10:25:09;7.35;;;2.10;;
28022;SDS011;67403;50.104;8.758;2023-02-01T10:27:45;4.72;;;1.98;;
28022;SDS011;67403;50.104;8.758;2023-02-01T10:32:44;2.67;;;1.33;;
28022;SDS011;67403;50.104;8.758;2023-02-01T10:35:15;5.00;;;1.70;;
28022;SDS011;67403;50.104;8.758;2023-02-01T10:37:43;6.95;;;2.20;;
28022;SDS011;67403;50.104;8.758;2023-02-01T10:40:14;4.20;;;2.08;;
28022;SDS011;67403;50.104;8.758;2023-02-01T10:42:44;4.03;;;1.83;;
28022;SDS011;67403;50.104;8.758;2023-02-01T10:45:13;5.20;;;1.77;;
28022;SDS011;67403;50.104;8.758;2023-02-01T10:47:43;3.72;;;1.60;;
28022;SDS011;67403;50.104;8.758;2023-02-01T10:50:17;4.55;;;1.25;;
28022;SDS011;67403;50.104;8.758;2023-02-01T10:52:58;1.52;;;1.33;;
28022;SDS011;67403;50.104;8.758;2023-02-01T10:55:33;4.90;;;2.15;;
28022;SDS011;67403;50.104;8.758;2023-02-01T10:58:04;2.83;;;1.20;;
28022;SDS011;67403;50.104;8.758;2023-02-01T11:00:35;8.50;;;2.00;;
28022;SDS011;67403;50.104;8.758;2023-02-01T11:03:21;8.15;;;1.60;;
28022;SDS011;67403;50.104;8.758;2023-02-01T11:05:58;6.95;;;2.13;;
28022;SDS011;67403;50.104;8.758;2023-02-01T11:08:25;10.35;;;1.88;;
28022;SDS011;67403;50.104;8.758;2023-02-01T11:10:57;6.05;;;1.80;;
28022;SDS011;67403;50.104;8.758;2023-02-01T11:13:28;8.85;;;2.33;;
28022;SDS011;67403;50.104;8.758;2023-02-01T11:15:56;2.80;;;1.67;;
28022;SDS011;67403;50.104;8.758;2023-02-01T11:18:25;5.25;;;1.50;;
28022;SDS011;67403;50.104;8.758;2023-02-01T11:20:53;5.13;;;2.00;;
28022;SDS011;67403;50.104;8.758;2023-02-01T11:23:22;3.03;;;1.65;;
28022;SDS011;67403;50.104;8.758;2023-02-01T11:28:20;6.78;;;1.92;;
28022;SDS011;67403;50.104;8.758;2023-02-01T11:30:49;5.03;;;1.75;;
28022;SDS011;67403;50.104;8.758;2023-02-01T11:33:20;6.88;;;1.63;;
28022;SDS011;67403;50.104;8.758;2023-02-01T11:35:50;5.35;;;2.08;;
28022;SDS011;67403;50.104;8.758;2023-02-01T11:38:20;5.22;;;1.75;;
28022;SDS011;67403;50.104;8.758;2023-02-01T11:40:52;7.15;;;2.20;;
28022;SDS011;67403;50.104;8.758;2023-02-01T11:43:22;4.32;;;1.48;;
28022;SDS011;67403;50.104;8.758;2023-02-01T11:45:54;10.63;;;2.55;;
28022;SDS011;67403;50.104;8.758;2023-02-01T11:48:23;5.60;;;1.95;;
28022;SDS011;67403;50.104;8.758;2023-02-01T11:50:53;3.40;;;1.63;;
28022;SDS011;67403;50.104;8.758;2023-02-01T11:53:35;12.38;;;1.92;;
28022;SDS011;67403;50.104;8.758;2023-02-01T11:56:13;4.28;;;1.40;;
28022;SDS011;67403;50.104;8.758;2023-02-01T11:58:58;8.15;;;2.25;;
28022;SDS011;67403;50.104;8.758;2023-02-01T12:01:41;4.05;;;1.25;;
28022;SDS011;67403;50.104;8.758;2023-02-01T12:07:34;7.25;;;1.67;;
28022;SDS011;67403;50.104;8.758;2023-02-01T12:10:18;1.67;;;1.10;;
28022;SDS011;67403;50.104;8.758;2023-02-01T12:12:56;4.13;;;1.63;;
28022;SDS011;67403;50.104;8.758;2023-02-01T12:15:35;11.00;;;1.88;;
28022;SDS011;67403;50.104;8.758;2023-02-01T12:21:22;5.63;;;2.08;;
28022;SDS011;67403;50.104;8.758;2023-02-01T12:24:04;6.50;;;1.90;;
28022;SDS011;67403;50.104;8.758;2023-02-01T12:26:56;2.55;;;1.65;;
28022;SDS011;67403;50.104;8.758;2023-02-01T12:29:35;13.77;;;2.38;;
28022;SDS011;67403;50.104;8.758;2023-02-01T12:32:19;8.77;;;1.92;;
28022;SDS011;67403;50.104;8.758;2023-02-01T12:34:56;12.75;;;2.10;;
28022;SDS011;67403;50.104;8.758;2023-02-01T12:37:45;11.02;;;2.10;;
28022;SDS011;67403;50.104;8.758;2023-02-01T12:40:27;10.75;;;2.55;;
28022;SDS011;67403;50.104;8.758;2023-02-01T12:43:01;6.07;;;1.52;;
28022;SDS011;67403;50.104;8.758;2023-02-01T12:45:34;12.00;;;1.83;;
28022;SDS011;67403;50.104;8.758;2023-02-01T12:48:11;9.07;;;1.65;;
28022;SDS011;67403;50.104;8.758;2023-02-01T12:50:52;7.20;;;1.73;;
28022;SDS011;67403;50.104;8.758;2023-02-01T12:53:25;10.32;;;2.22;;
28022;SDS011;67403;50.104;8.758;2023-02-01T12:55:55;7.57;;;1.70;;
28022;SDS011;67403;50.104;8.758;2023-02-01T12:58:30;8.77;;;1.30;;
28022;SDS011;67403;50.104;8.758;2023-02-01T13:01:02;6.88;;;1.92;;
28022;SDS011;67403;50.104;8.758;2023-02-01T13:03:34;7.78;;;1.83;;
28022;SDS011;67403;50.104;8.758;2023-02-01T13:06:06;7.47;;;1.52;;
28022;SDS011;67403;50.104;8.758;2023-02-01T13:08:39;5.93;;;1.58;;
28022;SDS011;67403;50.104;8.758;2023-02-01T13:11:13;6.32;;;2.25;;
28022;SDS011;67403;50.104;8.758;2023-02-01T13:13:47;2.45;;;1.45;;
28022;SDS011;67403;50.104;8.758;2023-02-01T13:16:29;5.30;;;1.83;;
28022;SDS011;67403;50.104;8.758;2023-02-01T13:19:00;10.90;;;3.25;;
28022;SDS011;67403;50.104;8.758;2023-02-01T13:21:35;10.38;;;2.90;;
28022;SDS011;67403;50.104;8.758;2023-02-01T13:24:06;7.00;;;1.35;;
28022;SDS011;67403;50.104;8.758;2023-02-01T13:26:46;17.75;;;2.33;;
28022;SDS011;67403;50.104;8.758;2023-02-01T13:29:14;7.63;;;2.05;;
28022;SDS011;67403;50.104;8.758;2023-02-01T13:32:02;6.22;;;1.77;;
28022;SDS011;67403;50.104;8.758;2023-02-01T13:34:46;9.55;;;1.90;;
28022;SDS011;67403;50.104;8.758;2023-02-01T13:37:29;6.65;;;2.20;;
28022;SDS011;67403;50.104;8.758;2023-02-01T13:40:18;12.15;;;1.88;;
28022;SDS011;67403;50.104;8.758;2023-02-01T13:42:58;6.22;;;1.55;;
28022;SDS011;67403;50.104;8.758;2023-02-01T13:45:30;6.65;;;1.75;;
28022;SDS011;67403;50.104;8.758;2023-02-01T13:47:59;5.68;;;1.40;;
28022;SDS011;67403;50.104;8.758;2023-02-01T13:50:29;12.40;;;2.17;;
28022;SDS011;67403;50.104;8.758;2023-02-01T13:53:02;3.90;;;1.42;;
28022;SDS011;67403;50.104;8.758;2023-02-01T13:55:32;4.43;;;1.40;;
28022;SDS011;67403;50.104;8.758;2023-02-01T13:58:02;5.38;;;1.75;;
28022;SDS011;67403;50.104;8.758;2023-02-01T14:00:43;3.25;;;1.30;;
28022;SDS011;67403;50.104;8.758;2023-02-01T14:03:12;7.70;;;1.75;;
28022;SDS011;67403;50.104;8.758;2023-02-01T14:05:54;5.70;;;1.60;;
28022;SDS011;67403;50.104;8.758;2023-02-01T14:08:44;8.23;;;2.10;;
28022;SDS011;67403;50.104;8.758;2023-02-01T14:11:36;3.22;;;0.95;;
28022;SDS011;67403;50.104;8.758;2023-02-01T14:14:06;7.35;;;1.80;;
28022;SDS011;67403;50.104;8.758;2023-02-01T14:23:19;4.07;;;1.45;;
28022;SDS011;67403;50.104;8.758;2023-02-01T14:26:02;7.45;;;1.92;;
28022;SDS011;67403;50.104;8.758;2023-02-01T14:28:42;4.25;;;1.15;;
28022;SDS011;67403;50.104;8.758;2023-02-01T14:31:39;9.77;;;1.25;;
28022;SDS011;67403;50.104;8.758;2023-02-01T14:34:16;6.22;;;1.13;;
28022;SDS011;67403;50.104;8.758;2023-02-01T14:36:48;2.83;;;0.95;;
28022;SDS011;67403;50.104;8.758;2023-02-01T14:39:20;5.10;;;1.30;;
28022;SDS011;67403;50.104;8.758;2023-02-01T14:41:53;6.70;;;1.52;;
28022;SDS011;67403;50.104;8.758;2023-02-01T14:44:24;5.68;;;1.38;;
28022;SDS011;67403;50.104;8.758;2023-02-01T14:47:06;9.40;;;1.60;;
28022;SDS011;67403;50.104;8.758;2023-02-01T14:50:00;4.70;;;1.70;;
28022;SDS011;67403;50.104;8.758;2023-02-01T14:55:20;5.15;;;1.20;;
28022;SDS011;67403;50.104;8.758;2023-02-01T14:57:54;8.27;;;1.75;;
28022;SDS011;67403;50.104;8.758;2023-02-01T15:00:25;6.93;;;1.50;;
28022;SDS011;67403;50.104;8.758;2023-02-01T15:02:54;7.55;;;1.45;;
28022;SDS011;67403;50.104;8.758;2023-02-01T15:05:29;2.72;;;1.60;;
28022;SDS011;67403;50.104;8.758;2023-02-01T15:07:59;6.57;;;1.77;;
28022;SDS011;67403;50.104;8.758;2023-02-01T15:10:33;9.57;;;1.80;;
28022;SDS011;67403;50.104;8.758;2023-02-01T15:13:13;4.80;;;1.95;;
28022;SDS011;67403;50.104;8.758;2023-02-01T15:15:59;11.15;;;2.10;;
28022;SDS011;67403;50.104;8.758;2023-02-01T15:18:30;2.50;;;1.52;;
28022;SDS011;67403;50.104;8.758;2023-02-01T15:20:57;4.85;;;1.10;;
28022;SDS011;67403;50.104;8.758;2023-02-01T15:23:25;7.93;;;1.20;;
28022;SDS011;67403;50.104;8.758;2023-02-01T15:25:54;6.00;;;1.42;;
28022;SDS011;67403;50.104;8.758;2023-02-01T15:28:21;2.05;;;1.10;;
28022;SDS011;67403;50.104;8.758;2023-02-01T15:30:52;3.42;;;1.33;;
28022;SDS011;67403;50.104;8.758;2023-02-01T15:33:20;4.38;;;0.93;;
28022;SDS011;67403;50.104;8.758;2023-02-01T15:35:48;8.32;;;1.55;;
28022;SDS011;67403;50.104;8.758;2023-02-01T15:38:33;8.68;;;2.03;;
28022;SDS011;67403;50.104;8.758;2023-02-01T15:41:07;8.30;;;1.85;;
28022;SDS011;67403;50.104;8.758;2023-02-01T15:43:37;5.28;;;1.52;;
28022;SDS011;67403;50.104;8.758;2023-02-01T15:46:07;3.42;;;1.42;;